createdAt,value
2023-05-10T00:03:33.470Z,47.20
2023-05-10T00:08:36.596Z,46.94
2023-05-10T00:13:39.538Z,47.54
2023-05-10T00:18:42.777Z,46.91
2023-05-10T00:23:45.722Z,46.95
2023-05-10T00:28:48.913Z,47.18
2023-05-10T00:33:51.781Z,46.93
2023-05-10T00:38:55.351Z,47.71
2023-05-10T00:43:58.318Z,47.71
2023-05-10T00:49:01.616Z,47.82
2023-05-10T00:54:06.593Z,47.72
2023-05-10T00:59:10.180Z,48.54
2023-05-10T01:04:14.394Z,48.67
2023-05-10T01:09:19.294Z,48.87
2023-05-10T01:14:22.772Z,49.22
2023-05-10T01:19:32.061Z,49.16
2023-05-10T01:24:59.471Z,49.09
2023-05-10T01:30:22.309Z,49.28
2023-05-10T01:35:38.148Z,49.43
2023-05-10T01:41:04.318Z,49.44
2023-05-10T01:46:12.256Z,49.72
2023-05-10T01:51:47.398Z,49.38
2023-05-10T01:56:58.538Z,49.58
2023-05-10T02:02:03.344Z,49.63
2023-05-10T02:07:07.932Z,49.90
2023-05-10T02:12:13.587Z,49.82
2023-05-10T02:17:37.542Z,49.78
2023-05-10T02:22:44.388Z,50.01
2023-05-10T02:27:48.956Z,50.32
2023-05-10T02:32:53.606Z,50.58
2023-05-10T02:37:59.816Z,50.48
2023-05-10T02:43:05.345Z,50.85
2023-05-10T02:48:26.869Z,50.56
2023-05-10T02:53:34.382Z,50.42
2023-05-10T02:58:37.454Z,50.44
2023-05-10T03:03:40.489Z,49.36
2023-05-10T03:08:45.832Z,49.30
2023-05-10T03:14:10.327Z,48.88
2023-05-10T03:19:33.637Z,48.56
2023-05-10T03:24:40.748Z,47.73
2023-05-10T03:29:47.643Z,48.08
2023-05-10T03:34:51.538Z,47.54
2023-05-10T03:39:54.487Z,47.06
2023-05-10T03:44:57.888Z,47.29
2023-05-10T03:50:01.438Z,46.69
2023-05-10T03:55:08.867Z,46.59
2023-05-10T04:00:12.581Z,45.79
2023-05-10T04:05:17.864Z,45.77
2023-05-10T04:10:21.824Z,46.08
2023-05-10T04:15:25.023Z,47.07
2023-05-10T04:20:28.010Z,46.54
2023-05-10T04:25:31.402Z,45.53
2023-05-10T04:30:34.542Z,45.25
2023-05-10T04:35:37.618Z,45.34
2023-05-10T04:40:40.563Z,44.63
2023-05-10T04:46:02.377Z,44.16
2023-05-10T04:51:05.489Z,44.12
2023-05-10T04:56:08.792Z,43.21
2023-05-10T05:01:11.901Z,42.09
2023-05-10T05:06:15.016Z,41.16
2023-05-10T05:11:19.410Z,41.64
2023-05-10T05:16:22.755Z,40.77
2023-05-10T05:21:28.027Z,40.00
2023-05-10T05:26:31.381Z,39.07
2023-05-10T05:31:34.427Z,39.33
2023-05-10T05:36:41.555Z,38.73
2023-05-10T05:41:44.842Z,37.57
2023-05-10T05:46:47.839Z,36.98
2023-05-10T05:51:51.482Z,36.47
2023-05-10T05:57:01.785Z,35.77
2023-05-10T06:02:23.500Z,35.52
2023-05-10T06:07:27.000Z,34.39
2023-05-10T06:12:29.779Z,33.72
2023-05-10T06:17:32.608Z,32.72
2023-05-10T06:22:35.959Z,32.71
2023-05-10T06:27:39.301Z,31.29
2023-05-10T06:32:45.134Z,31.22
2023-05-10T06:37:48.103Z,31.67
2023-05-10T06:42:51.277Z,31.04
2023-05-10T06:47:54.573Z,30.17
2023-05-10T06:52:57.780Z,30.16
2023-05-10T06:58:00.749Z,30.19
2023-05-10T07:03:03.888Z,29.76
2023-05-10T07:08:25.433Z,28.73
2023-05-10T07:13:28.409Z,29.37
2023-05-10T07:18:31.346Z,29.68
2023-05-10T07:23:34.861Z,27.94
2023-05-10T07:28:38.775Z,28.32
2023-05-10T07:33:41.879Z,28.91
2023-05-10T07:38:44.849Z,26.60
2023-05-10T07:43:47.964Z,26.90
2023-05-10T07:48:54.200Z,27.21
2023-05-10T07:53:58.310Z,27.49
2023-05-10T07:59:01.545Z,26.85
2023-05-10T08:04:05.477Z,26.78
2023-05-10T08:09:08.736Z,26.52
2023-05-10T08:14:11.844Z,26.66
2023-05-10T08:19:14.804Z,27.82
2023-05-10T08:24:17.783Z,27.04
2023-05-10T08:29:20.761Z,27.63
2023-05-10T08:34:23.631Z,27.54
2023-05-10T08:39:30.509Z,26.77
2023-05-10T08:44:36.397Z,26.96
2023-05-10T08:49:40.108Z,26.49
2023-05-10T08:54:43.795Z,26.35
2023-05-10T08:59:47.958Z,25.25
2023-05-10T09:04:51.197Z,25.99
2023-05-10T09:09:55.546Z,26.16
2023-05-10T09:15:01.084Z,25.62
2023-05-10T09:20:05.643Z,25.33
2023-05-10T09:25:16.643Z,25.44
2023-05-10T09:30:28.165Z,25.07
2023-05-10T09:35:33.359Z,25.22
2023-05-10T09:40:36.380Z,25.36
2023-05-10T09:45:39.423Z,25.57
2023-05-10T09:51:01.918Z,24.70
2023-05-10T09:56:05.039Z,25.27
2023-05-10T10:01:16.199Z,24.22
2023-05-10T10:06:29.456Z,24.26
2023-05-10T10:11:34.000Z,23.26
2023-05-10T10:16:39.939Z,24.45
2023-05-10T10:21:50.900Z,23.95
2023-05-10T10:26:58.523Z,23.51
2023-05-10T10:32:31.572Z,23.96
2023-05-10T10:37:48.578Z,24.42
2023-05-10T10:42:51.506Z,23.95
2023-05-10T10:48:13.651Z,23.89
2023-05-10T10:53:16.522Z,23.47
2023-05-10T10:58:35.524Z,24.61
2023-05-10T11:03:38.425Z,25.59
2023-05-10T11:08:45.100Z,24.85
2023-05-10T11:13:51.736Z,25.13
2023-05-10T11:19:03.836Z,25.02
2023-05-10T11:24:15.098Z,25.25
2023-05-10T11:29:18.048Z,25.36
2023-05-10T11:34:28.230Z,25.01
2023-05-10T11:39:33.104Z,25.36
2023-05-10T11:44:36.676Z,25.19
2023-05-10T11:49:39.833Z,25.63
2023-05-10T11:54:56.082Z,24.68
2023-05-10T11:59:59.322Z,24.02
2023-05-10T12:05:04.423Z,24.71
2023-05-10T12:10:11.461Z,24.59
2023-05-10T12:15:25.514Z,23.70
2023-05-10T12:20:29.246Z,23.48
2023-05-10T12:25:34.395Z,23.35
2023-05-10T12:30:37.912Z,23.15
2023-05-10T12:35:54.467Z,23.26
2023-05-10T12:41:05.015Z,23.71
2023-05-10T12:46:18.216Z,23.75
2023-05-10T12:51:23.400Z,23.31
2023-05-10T12:56:26.486Z,22.90
2023-05-10T13:01:29.602Z,22.68
2023-05-10T13:06:33.092Z,22.26
2023-05-10T13:11:36.643Z,23.00
2023-05-10T13:16:39.578Z,22.77
2023-05-10T13:21:42.556Z,22.66
2023-05-10T13:26:45.613Z,22.52
2023-05-10T13:31:48.631Z,22.31
2023-05-10T13:36:51.523Z,22.22
2023-05-10T13:41:55.849Z,22.41
2023-05-10T13:46:58.830Z,22.25
2023-05-10T13:52:08.031Z,22.59
2023-05-10T13:57:13.120Z,22.02
2023-05-10T14:02:16.170Z,22.94
2023-05-10T14:07:19.112Z,22.82
2023-05-10T14:12:22.207Z,22.78
2023-05-10T14:17:25.088Z,23.09
2023-05-10T14:22:28.114Z,22.70
2023-05-10T14:27:31.628Z,23.07
2023-05-10T14:32:35.179Z,22.56
2023-05-10T14:37:38.679Z,22.56
2023-05-10T14:42:41.643Z,22.36
2023-05-10T14:47:44.545Z,22.45
2023-05-10T14:52:47.511Z,22.18
2023-05-10T14:57:51.812Z,22.71
2023-05-10T15:02:54.857Z,23.06
2023-05-10T15:07:58.172Z,22.68
2023-05-10T15:13:01.574Z,23.57
2023-05-10T15:18:04.658Z,24.05
2023-05-10T15:23:07.714Z,23.79
2023-05-10T15:28:11.019Z,24.07
2023-05-10T15:33:14.145Z,25.31
2023-05-10T15:38:17.531Z,25.00
2023-05-10T15:43:20.526Z,25.61
2023-05-10T15:48:42.765Z,25.31
2023-05-10T15:54:00.422Z,26.01
2023-05-10T15:59:08.950Z,26.11
2023-05-10T16:04:11.718Z,27.02
2023-05-10T16:09:14.636Z,27.17
2023-05-10T16:14:17.852Z,27.43
2023-05-10T16:19:20.903Z,28.19
2023-05-10T16:24:42.727Z,28.38
2023-05-10T16:29:47.620Z,28.56
2023-05-10T16:35:09.729Z,30.09
2023-05-10T16:40:12.934Z,29.38
2023-05-10T16:45:16.699Z,30.04
2023-05-10T16:50:19.898Z,30.35
2023-05-10T16:55:25.410Z,30.87
2023-05-10T17:00:29.555Z,31.08
2023-05-10T17:05:32.345Z,31.88
2023-05-10T17:10:35.144Z,31.45
2023-05-10T17:15:39.524Z,31.68
2023-05-10T17:20:44.864Z,31.86
2023-05-10T17:25:47.836Z,31.84
2023-05-10T17:30:57.528Z,32.21
2023-05-10T17:36:00.385Z,32.59
2023-05-10T17:41:22.023Z,32.54
2023-05-10T17:46:25.265Z,32.45
2023-05-10T17:51:29.124Z,32.82
2023-05-10T17:56:32.180Z,33.31
2023-05-10T18:01:35.459Z,33.23
2023-05-10T18:06:39.313Z,33.59
2023-05-10T18:11:42.408Z,33.22
2023-05-10T18:16:45.774Z,33.75
2023-05-10T18:21:49.553Z,34.08
2023-05-10T18:26:52.921Z,35.02
2023-05-10T18:31:55.755Z,35.70
2023-05-10T18:37:17.382Z,35.99
2023-05-10T18:42:20.888Z,36.38
2023-05-10T18:47:43.196Z,36.85
2023-05-10T18:52:46.814Z,36.65
2023-05-10T18:57:49.708Z,36.53
2023-05-10T19:02:53.848Z,36.81
2023-05-10T19:07:57.255Z,36.73
2023-05-10T19:13:00.053Z,37.62
2023-05-10T19:18:05.141Z,37.50
2023-05-10T19:23:10.279Z,37.05
2023-05-10T19:28:13.401Z,37.46
2023-05-10T19:33:18.602Z,37.73
2023-05-10T19:38:22.848Z,38.25
2023-05-10T19:43:26.826Z,38.51
2023-05-10T19:48:30.595Z,39.50
2023-05-10T19:53:33.781Z,39.21
2023-05-10T19:58:36.997Z,38.67
2023-05-10T20:03:39.963Z,41.04
2023-05-10T20:08:43.030Z,40.65
2023-05-10T20:13:46.129Z,39.37
2023-05-10T20:18:49.300Z,39.54
2023-05-10T20:23:52.696Z,39.48
2023-05-10T20:28:56.013Z,39.51
2023-05-10T20:33:58.997Z,40.39
2023-05-10T20:39:02.038Z,40.44
2023-05-10T20:44:06.218Z,40.71
2023-05-10T20:49:09.513Z,40.83
2023-05-10T20:54:12.546Z,41.50
2023-05-10T20:59:15.549Z,42.04
2023-05-10T21:04:37.153Z,42.88
2023-05-10T21:09:40.177Z,43.48
2023-05-10T21:14:44.515Z,44.55
2023-05-10T21:19:47.547Z,44.25
2023-05-10T21:24:50.783Z,45.67
2023-05-10T21:30:12.701Z,45.83
2023-05-10T21:35:16.182Z,44.43
2023-05-10T21:40:19.520Z,44.29
2023-05-10T21:45:23.240Z,45.06
2023-05-10T21:50:26.492Z,43.85
2023-05-10T21:55:29.651Z,44.44
2023-05-10T22:00:34.174Z,47.01
2023-05-10T22:05:37.602Z,47.07
2023-05-10T22:10:40.622Z,46.63
2023-05-10T22:15:44.537Z,46.89
2023-05-10T22:20:47.718Z,47.14
2023-05-10T22:25:50.748Z,47.03
2023-05-10T22:30:53.882Z,47.41
2023-05-10T22:35:56.810Z,48.38
2023-05-10T22:40:59.688Z,47.54
2023-05-10T22:46:02.692Z,48.86
2023-05-10T22:51:05.642Z,49.93
2023-05-10T22:56:08.689Z,49.08
2023-05-10T23:01:11.890Z,49.44
2023-05-10T23:06:14.970Z,49.71
2023-05-10T23:11:17.959Z,49.10
2023-05-10T23:16:21.484Z,49.55
2023-05-10T23:21:25.402Z,49.96
2023-05-10T23:26:28.444Z,50.11
2023-05-10T23:31:31.456Z,49.08
2023-05-10T23:36:34.563Z,49.28
2023-05-10T23:41:37.648Z,48.74
2023-05-10T23:46:40.602Z,49.27
2023-05-10T23:51:43.677Z,48.54
2023-05-10T23:56:46.566Z,48.50
